Observation data for Memphis on 11/16/2019      Previous  Date       Current Mesonet Observations  Soil Data  Daily Summary Page  Observations in Plain Language
KMES 160600Z 29000KT 01/M04 A3018 RMK A01 T00121039  RH  069%=      5-min Rain = 0
KMES 160605Z 32001KT 01/M05 A3018 RMK A01 T00091045  RH  068%=      5-min Rain = 0
KMES 160610Z 33002KT 01/M04 A3018 RMK A01 T00071042  RH  070%=      5-min Rain = 0
KMES 160615Z 34001KT 01/M04 A3018 RMK A01 T00091040  RH  070%=      5-min Rain = 0
KMES 160620Z 34002KT 01/M04 A3018 RMK A01 T00101039  RH  070%=      5-min Rain = 0
KMES 160625Z 34002KT 01/M04 A3018 RMK A01 T00101040  RH  070%=      5-min Rain = 0
KMES 160630Z 34002KT 01/M04 A3018 RMK A01 T00081042  RH  070%=      5-min Rain = 0
KMES 160635Z 34001KT 01/M04 A3017 RMK A01 T00071042  RH  070%=      5-min Rain = 0
KMES 160640Z 00001KT 00/M05 A3017 RMK A01 T00041047  RH  069%=      5-min Rain = 0
KMES 160645Z 03001KT 00/05 A3017 RMK A01 T00000-50  RH  069%=      5-min Rain = 0
KMES 160650Z 03001KT M00/M05 A3017 RMK A01 T10011048  RH  071%=      5-min Rain = 0
KMES 160655Z 35001KT 00/M04 A3017 RMK A01 T00021043  RH  072%=      5-min Rain = 0
KMES 160700Z 34002KT 01/M04 A3017 RMK A01 T00051040  RH  072%=      5-min Rain = 0
KMES 160705Z 34002KT 01/M04 A3017 RMK A01 T00061037  RH  073%=      5-min Rain = 0
KMES 160710Z 34002KT 01/M04 A3017 RMK A01 T00081036  RH  073%=      5-min Rain = 0
KMES 160715Z 34002KT 01/M04 A3017 RMK A01 T00071037  RH  073%=      5-min Rain = 0
KMES 160720Z 34002KT 01/M04 A3016 RMK A01 T00071037  RH  073%=      5-min Rain = 0
KMES 160725Z 34002KT 01/M04 A3016 RMK A01 T00061038  RH  073%=      5-min Rain = 0
KMES 160730Z 34002KT 00/M04 A3016 RMK A01 T00041039  RH  073%=      5-min Rain = 0
KMES 160735Z 34002KT 00/M04 A3016 RMK A01 T00041039  RH  074%=      5-min Rain = 0
KMES 160740Z 34002KT 00/M04 A3016 RMK A01 T00031040  RH  073%=      5-min Rain = 0
KMES 160745Z 35003KT 00/M04 A3016 RMK A01 T00011041  RH  074%=      5-min Rain = 0
KMES 160750Z 35002KT M00/M04 A3016 RMK A01 T10011043  RH  074%=      5-min Rain = 0
KMES 160755Z 35001KT 00/04 A3016 RMK A01 T00000-39  RH  075%=      5-min Rain = 0
KMES 160800Z 34001KT 00/M04 A3016 RMK A01 T00011039  RH  075%=      5-min Rain = 0
KMES 160805Z 34001KT 00/04 A3015 RMK A01 T00000-39  RH  075%=      5-min Rain = 0
KMES 160810Z 34001KT 00/04 A3015 RMK A01 T00000-38  RH  075%=      5-min Rain = 0
KMES 160815Z 35002KT 00/04 A3015 RMK A01 T00-00-40  RH  075%=      5-min Rain = 0
KMES 160820Z 35002KT M00/M04 A3015 RMK A01 T10031043  RH  075%=      5-min Rain = 0
KMES 160825Z 00002KT M00/M04 A3015 RMK A01 T10041042  RH  076%=      5-min Rain = 0
KMES 160830Z 00001KT M00/M04 A3015 RMK A01 T10041042  RH  076%=      5-min Rain = 0
KMES 160835Z 36001KT M00/M04 A3015 RMK A01 T10041041  RH  077%=      5-min Rain = 0
KMES 160840Z 34002KT M00/M04 A3015 RMK A01 T10041040  RH  077%=      5-min Rain = 0
KMES 160845Z 34002KT M00/M04 A3015 RMK A01 T10031039  RH  077%=      5-min Rain = 0
KMES 160850Z 35002KT M00/M04 A3015 RMK A01 T10021038  RH  077%=      5-min Rain = 0
KMES 160855Z 35001KT M00/M04 A3015 RMK A01 T10021037  RH  077%=      5-min Rain = 0
KMES 160900Z 35001KT M00/M04 A3015 RMK A01 T10011036  RH  078%=      5-min Rain = 0
KMES 160905Z 34001KT M00/M04 A3015 RMK A01 T10011037  RH  077%=      5-min Rain = 0
KMES 160910Z 33001KT M00/M04 A3015 RMK A01 T10031039  RH  077%=      5-min Rain = 0
KMES 160915Z 34002KT M01/M04 A3015 RMK A01 T10051041  RH  077%=      5-min Rain = 0
KMES 160920Z 34002KT M01/M05 A3015 RMK A01 T10091046  RH  076%=      5-min Rain = 0
KMES 160925Z 33002KT M01/M04 A3015 RMK A01 T10101043  RH  078%=      5-min Rain = 0
KMES 160930Z 33002KT M01/M04 A3015 RMK A01 T10071039  RH  079%=      5-min Rain = 0
KMES 160935Z 33002KT M00/M04 A3015 RMK A01 T10041036  RH  079%=      5-min Rain = 0
KMES 160940Z 34002KT M00/M04 A3015 RMK A01 T10041037  RH  079%=      5-min Rain = 0
KMES 160945Z 34003KT M01/M04 A3014 RMK A01 T10061040  RH  078%=      5-min Rain = 0
KMES 160950Z 35003KT M01/M04 A3014 RMK A01 T10091043  RH  078%=      5-min Rain = 0
KMES 160955Z 34003KT M01/M04 A3014 RMK A01 T10081040  RH  079%=      5-min Rain = 0
KMES 161000Z 34003KT M01/M04 A3014 RMK A01 T10051036  RH  080%=      5-min Rain = 0
KMES 161005Z 34003KT M00/M03 A3014 RMK A01 T10031034  RH  080%=      5-min Rain = 0
KMES 161010Z 34002KT M00/M03 A3014 RMK A01 T10021033  RH  080%=      5-min Rain = 0
KMES 161015Z 33002KT M00/M04 A3014 RMK A01 T10031035  RH  080%=      5-min Rain = 0
KMES 161020Z 33001KT M01/M04 A3014 RMK A01 T10051038  RH  079%=      5-min Rain = 0
KMES 161025Z 32001KT M01/M04 A3013 RMK A01 T10091042  RH  079%=      5-min Rain = 0
KMES 161030Z 32001KT M01/M04 A3013 RMK A01 T10111042  RH  080%=      5-min Rain = 0
KMES 161035Z 32001KT M01/M04 A3013 RMK A01 T10121043  RH  080%=      5-min Rain = 0
KMES 161040Z 32002KT M01/M04 A3013 RMK A01 T10141044  RH  080%=      5-min Rain = 0
KMES 161045Z 31002KT M02/M05 A3013 RMK A01 T10161046  RH  080%=      5-min Rain = 0
KMES 161050Z 30002KT M02/M05 A3013 RMK A01 T10161045  RH  081%=      5-min Rain = 0
KMES 161055Z 30002KT M02/M04 A3013 RMK A01 T10151043  RH  082%=      5-min Rain = 0
KMES 161100Z 29002KT M02/M04 A3012 RMK A01 T10161044  RH  082%=      5-min Rain = 0
KMES 161105Z 29001KT M02/M05 A3012 RMK A01 T10171045  RH  082%=      5-min Rain = 0
KMES 161110Z 30002KT M02/M05 A3013 RMK A01 T10181046  RH  082%=      5-min Rain = 0
KMES 161115Z 30001KT M02/M05 A3012 RMK A01 T10201048  RH  081%=      5-min Rain = 0
KMES 161120Z 32002KT M02/M05 A3013 RMK A01 T10221051  RH  080%=      5-min Rain = 0
KMES 161125Z 32003KT M02/M05 A3013 RMK A01 T10221051  RH  081%=      5-min Rain = 0
KMES 161130Z 33002KT M02/M05 A3013 RMK A01 T10221050  RH  081%=      5-min Rain = 0
KMES 161135Z 35002KT M02/M05 A3013 RMK A01 T10201047  RH  082%=      5-min Rain = 0
KMES 161140Z 35002KT M02/M05 A3012 RMK A01 T10181045  RH  082%=      5-min Rain = 0
KMES 161145Z 36001KT M02/M04 A3012 RMK A01 T10171043  RH  082%=      5-min Rain = 0
KMES 161150Z 34002KT M02/M05 A3012 RMK A01 T10181045  RH  082%=      5-min Rain = 0
KMES 161155Z 33002KT M02/M04 A3012 RMK A01 T10151040  RH  084%=      5-min Rain = 0
KMES 161200Z 34002KT M01/M04 A3012 RMK A01 T10121036  RH  084%=      5-min Rain = 0
KMES 161205Z 35002KT M01/M04 A3012 RMK A01 T10121038  RH  083%=      5-min Rain = 0
KMES 161210Z 00002KT M01/M04 A3012 RMK A01 T10141040  RH  083%=      5-min Rain = 0
KMES 161215Z 34001KT M02/M04 A3012 RMK A01 T10161041  RH  083%=      5-min Rain = 0
KMES 161220Z 33001KT M01/M04 A3012 RMK A01 T10141038  RH  084%=      5-min Rain = 0
KMES 161225Z 33001KT M01/M04 A3012 RMK A01 T10121037  RH  084%=      5-min Rain = 0
KMES 161230Z 34002KT M01/M04 A3012 RMK A01 T10131038  RH  083%=      5-min Rain = 0
KMES 161235Z 34002KT M01/M04 A3012 RMK A01 T10141039  RH  084%=      5-min Rain = 0
KMES 161240Z 34002KT M02/M04 A3012 RMK A01 T10151039  RH  084%=      5-min Rain = 0
KMES 161245Z 34002KT M02/M04 A3012 RMK A01 T10161042  RH  083%=      5-min Rain = 0
KMES 161250Z 34001KT M02/M05 A3012 RMK A01 T10181045  RH  083%=      5-min Rain = 0
KMES 161255Z 34001KT M02/M05 A3012 RMK A01 T10191046  RH  083%=      5-min Rain = 0
KMES 161300Z 34001KT M02/M05 A3012 RMK A01 T10201046  RH  082%=      5-min Rain = 0
KMES 161305Z 35000KT M02/M05 A3012 RMK A01 T10191045  RH  083%=      5-min Rain = 0
KMES 161310Z 35000KT M02/M04 A3012 RMK A01 T10181043  RH  083%=      5-min Rain = 0
KMES 161315Z 02000KT M02/M04 A3012 RMK A01 T10181043  RH  083%=      5-min Rain = 0
KMES 161320Z 00000KT M02/M05 A3012 RMK A01 T10201046  RH  082%=      5-min Rain = 0
KMES 161325Z 02000KT M02/M05 A3012 RMK A01 T10211048  RH  082%=      5-min Rain = 0
KMES 161330Z 02001KT M02/M05 A3012 RMK A01 T10221049  RH  082%=      5-min Rain = 0
KMES 161335Z 03001KT M02/M05 A3012 RMK A01 T10221050  RH  082%=      5-min Rain = 0
KMES 161340Z 04001KT M02/M05 A3012 RMK A01 T10221049  RH  082%=      5-min Rain = 0
KMES 161345Z 04001KT M02/M05 A3012 RMK A01 T10201047  RH  082%=      5-min Rain = 0
KMES 161350Z 06001KT M02/M05 A3012 RMK A01 T10181045  RH  082%=      5-min Rain = 0
KMES 161355Z 06000KT M02/M04 A3012 RMK A01 T10161041  RH  083%=      5-min Rain = 0
KMES 161400Z 10000KT M01/M04 A3012 RMK A01 T10111036  RH  083%=      5-min Rain = 0
KMES 161405Z 10001KT M01/M03 A3012 RMK A01 T10061032  RH  083%=      5-min Rain = 0
KMES 161410Z 11001KT M00/M03 A3012 RMK A01 T10031030  RH  082%=      5-min Rain = 0
KMES 161415Z 11000KT M00/M03 A3012 RMK A01 T10011030  RH  082%=      5-min Rain = 0
KMES 161420Z 12000KT 00/M03 A3012 RMK A01 T00021027  RH  082%=      5-min Rain = 0
KMES 161425Z 00000KT 01/M02 A3012 RMK A01 T00051023  RH  082%=      5-min Rain = 0
KMES 161430Z 00000KT 01/M02 A3011 RMK A01 T00081021  RH  082%=      5-min Rain = 0
KMES 161435Z 28000KT 01/M02 A3011 RMK A01 T00101020  RH  081%=      5-min Rain = 0
KMES 161440Z 28001KT 01/M02 A3011 RMK A01 T00121018  RH  081%=      5-min Rain = 0
KMES 161445Z 28000KT 01/M02 A3012 RMK A01 T00141017  RH  080%=      5-min Rain = 0
KMES 161450Z 00000KT 02/M02 A3011 RMK A01 T00161016  RH  080%=      5-min Rain = 0
KMES 161455Z 00000KT 02/M02 A3011 RMK A01 T00181015  RH  079%=      5-min Rain = 0
KMES 161500Z 00000KT 02/M01 A3011 RMK A01 T00211013  RH  079%=      5-min Rain = 0
KMES 161505Z 00000KT 02/M01 A3011 RMK A01 T00231012  RH  078%=      5-min Rain = 0
KMES 161510Z 29000KT 03/M01 A3011 RMK A01 T00261011  RH  077%=      5-min Rain = 0
KMES 161515Z 30000KT 03/M01 A3011 RMK A01 T00281011  RH  076%=      5-min Rain = 0
KMES 161520Z 30000KT 03/M01 A3011 RMK A01 T00321008  RH  076%=      5-min Rain = 0
KMES 161525Z 16000KT 04/M00 A3011 RMK A01 T00371004  RH  075%=      5-min Rain = 0
KMES 161530Z 13000KT 04/M00 A3011 RMK A01 T00431003  RH  073%=      5-min Rain = 0
KMES 161535Z 13000KT 05/M00 A3011 RMK A01 T00471002  RH  071%=      5-min Rain = 0
KMES 161540Z 12000KT 05/M00 A3011 RMK A01 T00521001  RH  069%=      5-min Rain = 0
KMES 161545Z 12000KT 06/M00 A3011 RMK A01 T00561001  RH  067%=      5-min Rain = 0
KMES 161550Z 13001KT 06/M00 A3011 RMK A01 T00581002  RH  066%=      5-min Rain = 0
KMES 161555Z 12003KT 06/M00 A301 RMK A01 T00611002  RH  065%=      5-min Rain = 0
KMES 161600Z 13003KT 06/00 A301 RMK A01 T006400-0  RH  064%=      5-min Rain = 0
KMES 161605Z 12004KT 07/00 A301 RMK A01 T00670001  RH  063%=      5-min Rain = 0
KMES 161610Z 13003KT 07/00 A301 RMK A01 T00710003  RH  063%=      5-min Rain = 0
KMES 161615Z 13004KT 08/01 A301 RMK A01 T00750005  RH  062%=      5-min Rain = 0
KMES 161620Z 12004KT 08/01 A301 RMK A01 T00810008  RH  061%=      5-min Rain = 0
KMES 161625Z 14004KT 09/01 A301 RMK A01 T00890009  RH  058%=      5-min Rain = 0
KMES 161630Z 15004KT 10/01 A301 RMK A01 T00950009  RH  056%=      5-min Rain = 0
KMES 161635Z 16004KT 10/01 A301 RMK A01 T00990009  RH  054%=      5-min Rain = 0
KMES 161640Z 14003KT 10/01 A301 RMK A01 T01020010  RH  054%=      5-min Rain = 0
KMES 161645Z 18004KT 11/01 A3009 RMK A01 T01060010  RH  052%=      5-min Rain = 0
KMES 161650Z 16002KT 11/01 A3009 RMK A01 T01100012  RH  051%=      5-min Rain = 0
KMES 161655Z 15003KT 12/01 A3009 RMK A01 T01160012  RH  049%=      5-min Rain = 0
KMES 161700Z 18004KT 12/01 A3009 RMK A01 T01220012  RH  048%=      5-min Rain = 0
KMES 161705Z 20005KT 13/02 A3008 RMK A01 T01270015  RH  047%=      5-min Rain = 0
KMES 161710Z 17006KT 13/01 A3008 RMK A01 T01330014  RH  045%=      5-min Rain = 0
KMES 161715Z 18006G12KT 14/01 A3008 RMK A01 T01360014  RH  044%=      5-min Rain = 0
KMES 161720Z 16007KT 14/01 A3008 RMK A01 T01390014  RH  043%=      5-min Rain = 0
KMES 161725Z 13007KT 14/01 A3007 RMK A01 T01390013  RH  043%=      5-min Rain = 0
KMES 161730Z 13008KT 14/01 A3007 RMK A01 T01380012  RH  043%=      5-min Rain = 0
KMES 161735Z 13008KT 14/01 A3007 RMK A01 T01370013  RH  043%=      5-min Rain = 0
KMES 161740Z 12008KT 14/01 A3007 RMK A01 T01390013  RH  043%=      5-min Rain = 0
KMES 161745Z 13008KT 14/01 A3006 RMK A01 T01440014  RH  042%=      5-min Rain = 0
KMES 161750Z 13008KT 15/01 A3006 RMK A01 T01480014  RH  041%=      5-min Rain = 0
KMES 161755Z 13007KT 15/01 A3006 RMK A01 T01490014  RH  040%=      5-min Rain = 0
KMES 161800Z 12007KT 15/02 A3005 RMK A01 T01510015  RH  040%=      5-min Rain = 0
KMES 161805Z 14007KT 16/02 A3005 RMK A01 T01560015  RH  039%=      5-min Rain = 0
KMES 161810Z 15007G12KT 16/02 A3004 RMK A01 T01620015  RH  037%=      5-min Rain = 0
KMES 161815Z 16008KT 17/02 A3004 RMK A01 T01690015  RH  036%=      5-min Rain = 0
KMES 161820Z 16005KT 17/02 A3004 RMK A01 T01730015  RH  035%=      5-min Rain = 0
KMES 161825Z 15008G13KT 18/01 A3003 RMK A01 T01780014  RH  034%=      5-min Rain = 0
KMES 161830Z 16009KT 18/01 A3003 RMK A01 T01820013  RH  033%=      5-min Rain = 0
KMES 161835Z 16008KT 19/01 A3002 RMK A01 T01850014  RH  032%=      5-min Rain = 0
KMES 161840Z 16012G17KT 19/01 A3002 RMK A01 T01890013  RH  031%=      5-min Rain = 0
KMES 161845Z 16010KT 19/01 A3001 RMK A01 T01890013  RH  031%=      5-min Rain = 0
KMES 161850Z 16009G17KT 19/01 A3001 RMK A01 T01910012  RH  031%=      5-min Rain = 0
KMES 161855Z 18009G14KT 19/01 A30 RMK A01 T01940011  RH  030%=      5-min Rain = 0
KMES 161900Z 16009KT 20/01 A30 RMK A01 T01970011  RH  029%=      5-min Rain = 0
KMES 161905Z 17010G15KT 20/01 A2999 RMK A01 T01990010  RH  029%=      5-min Rain = 0
KMES 161910Z 17009KT 20/01 A2999 RMK A01 T01980009  RH  029%=      5-min Rain = 0
KMES 161915Z 18009G14KT 20/01 A2999 RMK A01 T01960007  RH  029%=      5-min Rain = 0
KMES 161920Z 17009G15KT 20/01 A2998 RMK A01 T01950008  RH  029%=      5-min Rain = 0
KMES 161925Z 17010KT 19/01 A2998 RMK A01 T01940009  RH  029%=      5-min Rain = 0
KMES 161930Z 15010G15KT 20/01 A2998 RMK A01 T01990011  RH  029%=      5-min Rain = 0
KMES 161935Z 15012G19KT 20/01 A2997 RMK A01 T02010009  RH  028%=      5-min Rain = 0
KMES 161940Z 18009G14KT 20/01 A2997 RMK A01 T02010009  RH  028%=      5-min Rain = 0
KMES 161945Z 16010G16KT 20/01 A2997 RMK A01 T02020009  RH  028%=      5-min Rain = 0
KMES 161950Z 16009G14KT 20/01 A2997 RMK A01 T02000010  RH  029%=      5-min Rain = 0
KMES 161955Z 15012G19KT 20/01 A2996 RMK A01 T02010011  RH  028%=      5-min Rain = 0
KMES 162000Z 16011G16KT 20/01 A2996 RMK A01 T02000011  RH  029%=      5-min Rain = 0
KMES 162005Z 17010G16KT 20/01 A2996 RMK A01 T01990009  RH  028%=      5-min Rain = 0
KMES 162010Z 15012G17KT 20/01 A2996 RMK A01 T02020011  RH  028%=      5-min Rain = 0
KMES 162015Z 16009G14KT 20/01 A2996 RMK A01 T02040010  RH  028%=      5-min Rain = 0
KMES 162020Z 17011G16KT 20/01 A2995 RMK A01 T02040010  RH  028%=      5-min Rain = 0
KMES 162025Z 14012G17KT 20/01 A2995 RMK A01 T02020011  RH  028%=      5-min Rain = 0
KMES 162030Z 15010G15KT 20/01 A2995 RMK A01 T02010011  RH  028%=      5-min Rain = 0
KMES 162035Z 15010KT 20/01 A2995 RMK A01 T02000010  RH  029%=      5-min Rain = 0
KMES 162040Z 15011G17KT 20/01 A2994 RMK A01 T02000010  RH  029%=      5-min Rain = 0
KMES 162045Z 15011KT 20/01 A2994 RMK A01 T01970009  RH  029%=      5-min Rain = 0
KMES 162050Z 15013KT 20/01 A2994 RMK A01 T01960009  RH  029%=      5-min Rain = 0
KMES 162055Z 15012G18KT 20/01 A2994 RMK A01 T01950008  RH  029%=      5-min Rain = 0
KMES 162100Z 15011KT 19/01 A2994 RMK A01 T01940009  RH  029%=      5-min Rain = 0
KMES 162105Z 15013G20KT 19/01 A2994 RMK A01 T01920011  RH  030%=      5-min Rain = 0
KMES 162110Z 16014KT 19/01 A2994 RMK A01 T01900013  RH  031%=      5-min Rain = 0
KMES 162115Z 15013G18KT 19/01 A2994 RMK A01 T01880013  RH  031%=      5-min Rain = 0
KMES 162120Z 14013G20KT 19/01 A2994 RMK A01 T01850014  RH  032%=      5-min Rain = 0
KMES 162125Z 14013KT 18/01 A2994 RMK A01 T01830014  RH  033%=      5-min Rain = 0
KMES 162130Z 14012G18KT 18/01 A2994 RMK A01 T01810014  RH  033%=      5-min Rain = 0
KMES 162135Z 15013G18KT 18/01 A2994 RMK A01 T01790014  RH  034%=      5-min Rain = 0
KMES 162140Z 15012G18KT 18/02 A2994 RMK A01 T01780015  RH  034%=      5-min Rain = 0
KMES 162145Z 15013KT 18/02 A2994 RMK A01 T01780016  RH  034%=      5-min Rain = 0
KMES 162150Z 16011KT 18/02 A2994 RMK A01 T01770016  RH  034%=      5-min Rain = 0
KMES 162155Z 15012G17KT 18/02 A2994 RMK A01 T01770016  RH  034%=      5-min Rain = 0
KMES 162200Z 15011G16KT 18/02 A2994 RMK A01 T01780016  RH  034%=      5-min Rain = 0
KMES 162205Z 16012G17KT 18/02 A2994 RMK A01 T01780017  RH  034%=      5-min Rain = 0
KMES 162210Z 16010G15KT 18/02 A2994 RMK A01 T01790017  RH  034%=      5-min Rain = 0
KMES 162215Z 15009KT 18/02 A2994 RMK A01 T01790017  RH  034%=      5-min Rain = 0
KMES 162220Z 15009KT 18/02 A2993 RMK A01 T01780018  RH  035%=      5-min Rain = 0
KMES 162225Z 15009KT 18/02 A2994 RMK A01 T01780018  RH  035%=      5-min Rain = 0
KMES 162230Z 14011G17KT 18/02 A2993 RMK A01 T01800019  RH  035%=      5-min Rain = 0
KMES 162235Z 15010G15KT 18/02 A2993 RMK A01 T01820020  RH  034%=      5-min Rain = 0
KMES 162240Z 15010G16KT 18/02 A2993 RMK A01 T01840020  RH  034%=      5-min Rain = 0
KMES 162245Z 14013G18KT 18/02 A2993 RMK A01 T01840020  RH  034%=      5-min Rain = 0
KMES 162250Z 14010G17KT 18/02 A2993 RMK A01 T01840020  RH  034%=      5-min Rain = 0
KMES 162255Z 14012G17KT 18/02 A2993 RMK A01 T01840019  RH  034%=      5-min Rain = 0
KMES 162300Z 15013KT 19/02 A2993 RMK A01 T01860018  RH  033%=      5-min Rain = 0
KMES 162305Z 15012G17KT 19/02 A2993 RMK A01 T01860018  RH  033%=      5-min Rain = 0
KMES 162310Z 15010G17KT 18/02 A2993 RMK A01 T01840018  RH  033%=      5-min Rain = 0
KMES 162315Z 16012G17KT 18/02 A2993 RMK A01 T01820018  RH  034%=      5-min Rain = 0
KMES 162320Z 15011G16KT 18/02 A2993 RMK A01 T01810019  RH  034%=      5-min Rain = 0
KMES 162325Z 16010G15KT 18/02 A2993 RMK A01 T01780020  RH  035%=      5-min Rain = 0
KMES 162330Z 15008G14KT 18/02 A2993 RMK A01 T01760020  RH  036%=      5-min Rain = 0
KMES 162335Z 15008KT 17/02 A2994 RMK A01 T01740020  RH  036%=      5-min Rain = 0
KMES 162340Z 15008KT 17/02 A2994 RMK A01 T01720021  RH  037%=      5-min Rain = 0
KMES 162345Z 15007KT 17/02 A2994 RMK A01 T01690021  RH  037%=      5-min Rain = 0
KMES 162350Z 15007KT 17/02 A2995 RMK A01 T01670022  RH  038%=      5-min Rain = 0
KMES 162355Z 15009KT 17/02 A2994 RMK A01 T01660024  RH  039%=      5-min Rain = 0
KMES 170000Z 15008KT 17/02 A2995 RMK A01 T01650024  RH  039%=      5-min Rain = 0
KMES 170005Z 15007KT 16/03 A2995 RMK A01 T01630026  RH  040%=      5-min Rain = 0
KMES 170010Z 16007KT 16/03 A2995 RMK A01 T01610026  RH  041%=      5-min Rain = 0
KMES 170015Z 15008KT 16/03 A2995 RMK A01 T01590027  RH  042%=      5-min Rain = 0
KMES 170020Z 15007KT 16/03 A2995 RMK A01 T01580027  RH  042%=      5-min Rain = 0
KMES 170025Z 15006KT 16/03 A2996 RMK A01 T01560028  RH  043%=      5-min Rain = 0
KMES 170030Z 15005KT 15/03 A2996 RMK A01 T01540028  RH  043%=      5-min Rain = 0
KMES 170035Z 15006KT 15/03 A2996 RMK A01 T01520027  RH  044%=      5-min Rain = 0
KMES 170040Z 15006KT 15/03 A2996 RMK A01 T01500027  RH  044%=      5-min Rain = 0
KMES 170045Z 16006KT 15/03 A2996 RMK A01 T01480027  RH  045%=      5-min Rain = 0
KMES 170050Z 16006KT 15/03 A2996 RMK A01 T01460027  RH  045%=      5-min Rain = 0
KMES 170055Z 16006KT 14/03 A2996 RMK A01 T01440027  RH  046%=      5-min Rain = 0
KMES 170100Z 15005KT 14/03 A2996 RMK A01 T01430027  RH  046%=      5-min Rain = 0
KMES 170105Z 15004KT 14/03 A2996 RMK A01 T01420027  RH  047%=      5-min Rain = 0
KMES 170110Z 16004KT 14/03 A2996 RMK A01 T01400027  RH  047%=      5-min Rain = 0
KMES 170115Z 16004KT 14/03 A2996 RMK A01 T01380027  RH  048%=      5-min Rain = 0
KMES 170120Z 15004KT 14/03 A2996 RMK A01 T01350026  RH  049%=      5-min Rain = 0
KMES 170125Z 15003KT 13/03 A2996 RMK A01 T01320026  RH  049%=      5-min Rain = 0
KMES 170130Z 14002KT 13/03 A2996 RMK A01 T01280025  RH  050%=      5-min Rain = 0
KMES 170135Z 14002KT 13/03 A2996 RMK A01 T01250026  RH  051%=      5-min Rain = 0
KMES 170140Z 13003KT 12/03 A2996 RMK A01 T01230025  RH  052%=      5-min Rain = 0
KMES 170145Z 12002KT 12/02 A2997 RMK A01 T01200024  RH  053%=      5-min Rain = 0
KMES 170150Z 13002KT 12/02 A2997 RMK A01 T01170024  RH  054%=      5-min Rain = 0
KMES 170155Z 15003KT 12/03 A2997 RMK A01 T01170025  RH  054%=      5-min Rain = 0
KMES 170200Z 15004KT 12/03 A2997 RMK A01 T01200028  RH  054%=      5-min Rain = 0
KMES 170205Z 15004KT 12/03 A2997 RMK A01 T01230028  RH  053%=      5-min Rain = 0
KMES 170210Z 15004KT 12/03 A2997 RMK A01 T01230028  RH  053%=      5-min Rain = 0
KMES 170215Z 15004KT 12/03 A2997 RMK A01 T01230029  RH  053%=      5-min Rain = 0
KMES 170220Z 15004KT 12/03 A2997 RMK A01 T01230030  RH  054%=      5-min Rain = 0
KMES 170225Z 14004KT 12/03 A2997 RMK A01 T01230030  RH  054%=      5-min Rain = 0
KMES 170230Z 13004KT 12/03 A2996 RMK A01 T01200029  RH  054%=      5-min Rain = 0
KMES 170235Z 12003KT 12/03 A2996 RMK A01 T01160028  RH  056%=      5-min Rain = 0
KMES 170240Z 12003KT 11/03 A2996 RMK A01 T01130027  RH  057%=      5-min Rain = 0
KMES 170245Z 10002KT 11/03 A2996 RMK A01 T01100026  RH  057%=      5-min Rain = 0
KMES 170250Z 10002KT 11/02 A2996 RMK A01 T01050022  RH  057%=      5-min Rain = 0
KMES 170255Z 11002KT 10/02 A2996 RMK A01 T01020022  RH  059%=      5-min Rain = 0
KMES 170300Z 12003KT 10/02 A2996 RMK A01 T01000023  RH  060%=      5-min Rain = 0
KMES 170305Z 11003KT 10/03 A2996 RMK A01 T01000025  RH  061%=      5-min Rain = 0
KMES 170310Z 10002KT 10/03 A2996 RMK A01 T01000026  RH  061%=      5-min Rain = 0
KMES 170315Z 10002KT 10/03 A2996 RMK A01 T01000026  RH  061%=      5-min Rain = 0
KMES 170320Z 11003KT 10/03 A2996 RMK A01 T01000025  RH  061%=      5-min Rain = 0
KMES 170325Z 11003KT 10/03 A2996 RMK A01 T00990028  RH  062%=      5-min Rain = 0
KMES 170330Z 12003KT 10/03 A2996 RMK A01 T01000029  RH  062%=      5-min Rain = 0
KMES 170335Z 14003KT 10/03 A2995 RMK A01 T01020033  RH  063%=      5-min Rain = 0
KMES 170340Z 14003KT 11/03 A2996 RMK A01 T01070034  RH  062%=      5-min Rain = 0
KMES 170345Z 14003KT 11/03 A2996 RMK A01 T01090034  RH  061%=      5-min Rain = 0
KMES 170350Z 11002KT 11/03 A2996 RMK A01 T01090033  RH  061%=      5-min Rain = 0
KMES 170355Z 36000KT 11/03 A2996 RMK A01 T01070032  RH  061%=      5-min Rain = 0
KMES 170400Z 01002KT 10/02 A2996 RMK A01 T01010023  RH  059%=      5-min Rain = 0
KMES 170405Z 35005KT 09/01 A2997 RMK A01 T00900014  RH  060%=      5-min Rain = 0
KMES 170410Z 36004KT 08/02 A2997 RMK A01 T00840015  RH  062%=      5-min Rain = 0
KMES 170415Z 35004KT 08/01 A2997 RMK A01 T00830014  RH  063%=      5-min Rain = 0
KMES 170420Z 00002KT 08/02 A2997 RMK A01 T00840017  RH  064%=      5-min Rain = 0
KMES 170425Z 35002KT 09/02 A2997 RMK A01 T00850019  RH  064%=      5-min Rain = 0
KMES 170430Z 02003KT 09/02 A2997 RMK A01 T00850017  RH  063%=      5-min Rain = 0
KMES 170435Z 02003KT 08/02 A2997 RMK A01 T00830016  RH  064%=      5-min Rain = 0
KMES 170440Z 06003KT 08/02 A2997 RMK A01 T00820018  RH  065%=      5-min Rain = 0
KMES 170445Z 10003KT 09/03 A2997 RMK A01 T00850025  RH  067%=      5-min Rain = 0
KMES 170450Z 08003KT 09/03 A2997 RMK A01 T00870025  RH  066%=      5-min Rain = 0
KMES 170455Z 08003KT 09/02 A2996 RMK A01 T00850022  RH  066%=      5-min Rain = 0
KMES 170500Z 09003KT 08/02 A2996 RMK A01 T00820022  RH  067%=      5-min Rain = 0
KMES 170505Z 09002KT 08/02 A2997 RMK A01 T00810023  RH  068%=      5-min Rain = 0
KMES 170510Z 08001KT 08/02 A2997 RMK A01 T00820024  RH  068%=      5-min Rain = 0
KMES 170515Z 06001KT 08/03 A2997 RMK A01 T00820025  RH  068%=      5-min Rain = 0
KMES 170520Z 06002KT 08/03 A2997 RMK A01 T00830025  RH  068%=      5-min Rain = 0
KMES 170525Z 06002KT 08/02 A2997 RMK A01 T00830022  RH  067%=      5-min Rain = 0
KMES 170530Z 06003KT 08/02 A2997 RMK A01 T00810020  RH  066%=      5-min Rain = 0
KMES 170535Z 07004KT 08/02 A2997 RMK A01 T00810023  RH  068%=      5-min Rain = 0
KMES 170540Z 07004KT 08/02 A2997 RMK A01 T00810023  RH  068%=      5-min Rain = 0
KMES 170545Z 06004KT 08/02 A2997 RMK A01 T00830024  RH  067%=      5-min Rain = 0
KMES 170550Z 06003KT 08/02 A2997 RMK A01 T00830023  RH  067%=      5-min Rain = 0
KMES 170555Z 07004KT 08/03 A2997 RMK A01 T00840026  RH  068%=      5-min Rain = 0

Page generated in 0.0151 seconds.